Double Eagle Ii, NM

12:48 PM MST on December 27, 2014 (GMT -0700)
Next to the Petroglyph Natl. Monument | Change Station
CLOSE
Current Station
Personal Weather Station
Location: Albuquerque, NM
Elevation: 5245 ft
Nearby Weather Stations

Elev 5245 ft 35.11 °N, 106.74 °W | Updated 4 seconds ago

Clear
Clear
38.0 °F
Feels Like 38 °F
N
0.1
Wind Variable Wind from WNW
Gusts 3.5 mph

Today
High -- | Low -- °F
--% Chance of Precip.
Yesterday
High -- | Low -- °F
Precip. -- in
7:14 AM 5:02 PM
Waxing Crescent, 39% visible
Pressure 30.31 in
Visibility 10.0 miles
Clouds Few 5000 ft
Windchill 38 °F
Dew Point 10 °F
Humidity 31%
Rainfall 0.00 in
Snow Depth Not available.
UV 3 out of 12
Pollen .10 out of 12
Air Quality Not available.
Flu Activity Not available.
METAR KABQ 271852Z 36009KT 10SM FEW050 01/M09 A3023 RMK AO2 SLP262 T00061094

More Conditions Fewer Conditions

Pressure 30.31 in
Visibility 10.0 miles
Clouds Few 5000 ft
Windchill 38 °F
Dew Point 10 °F
Humidity 31%
Rainfall 0.00 in
Snow Depth Not available.
UV 3 out of 12
Pollen .10 out of 12
Air Quality Not available.
Flu Activity Not available.
METAR KABQ 271852Z 36009KT 10SM FEW050 01/M09 A3023 RMK AO2 SLP262 T00061094

More Conditions Fewer Conditions

10-Day Weather Forecast

Almanac

Astronomy

Dec. 27, 2014 Rise Set
Actual Time
Civil Twilight
Nautical Twilight
Astronomical Twilight
Moon
Length of Visible Light
Length of Day
Tomorrow will be .
, % of the Moon is Illuminated

Today's Extremes

State Highs State Lows

Community

WunderPhotos

Upload Photos

1,781,028 photos uploaded!

WunderBlogs® & News

Nearby

Air Quality

  Air Quality AQ Index Pollutant
Not available.

Snow Depth

Station Depth Elevation

Earthquake Activity

City Distance Mag. Time & Date
Minimum magnitude displayed is 2.5.

Coastal Water Temperatures

Place Temperature

Nearby Weather Stations